Time;durP1;ratioP1;P1;durP2;ratioP2;P2;SDS_P1;SDS_P2;PMS_P1;PMS_P2;Temp;Humidity;BMP_temperature;BMP_pressure;BME280_temperature;BME280_humidity;BME280_pressure;Samples;Min_cycle;Max_cycle;Signal;HPM_P1;HPM_P2
2021/01/26 00:00:48;;;;;;;19.48;2.80;;;;;;;3.47;94.43;101022.81;4907869;29;20171;-76
2021/01/26 00:03:14;;;;;;;18.33;3.38;;;;;;;3.56;93.78;101024.00;4905579;29;20184;-76
2021/01/26 00:05:40;;;;;;;21.33;3.50;;;;;;;3.56;93.96;101023.16;4904050;29;20111;-76
2021/01/26 00:08:06;;;;;;;24.30;3.90;;;;;;;3.49;94.71;101002.47;4917779;29;20522;-75
2021/01/26 00:10:31;;;;;;;30.02;4.35;;;;;;;3.71;94.58;101040.59;4889442;29;20040;-76
2021/01/26 00:12:57;;;;;;;26.23;4.72;;;;;;;3.74;94.92;101042.16;4922487;29;20463;-75
2021/01/26 00:15:22;;;;;;;25.65;4.32;;;;;;;3.73;94.78;101038.69;4922439;29;20139;-76
2021/01/26 00:17:48;;;;;;;19.08;4.05;;;;;;;3.76;94.55;101042.91;4903956;29;20075;-75
2021/01/26 00:20:14;;;;;;;20.63;4.40;;;;;;;3.57;94.27;101004.59;4908616;29;20083;-75
2021/01/26 00:22:40;;;;;;;20.23;4.35;;;;;;;3.56;93.72;101013.44;4904394;29;20067;-75
2021/01/26 00:25:06;;;;;;;26.83;4.18;;;;;;;3.61;93.51;101010.50;4888251;29;20071;-75
2021/01/26 00:27:32;;;;;;;18.73;3.55;;;;;;;3.72;93.89;101044.09;4901684;29;20603;-75
2021/01/26 00:29:57;;;;;;;24.88;3.55;;;;;;;3.69;93.60;101039.84;4883984;29;20124;-75
2021/01/26 00:32:23;;;;;;;21.30;3.35;;;;;;;3.67;93.18;101037.31;4883466;29;20048;-75
2021/01/26 00:34:48;;;;;;;25.40;3.67;;;;;;;3.62;93.81;101055.25;4908184;29;20123;-76
2021/01/26 00:37:14;;;;;;;20.52;3.45;;;;;;;3.68;93.56;101054.84;4907709;29;20144;-75
2021/01/26 00:39:39;;;;;;;21.70;3.42;;;;;;;3.66;93.62;101051.47;4920066;29;20494;-76
2021/01/26 00:42:05;;;;;;;31.35;3.95;;;;;;;3.67;93.71;101054.94;4905808;29;20116;-75
2021/01/26 00:44:31;;;;;;;20.45;3.35;;;;;;;3.71;93.34;101058.25;4912666;29;20570;-75
2021/01/26 00:46:56;;;;;;;15.73;2.83;;;;;;;3.71;93.52;101056.44;4906128;29;20123;-75
2021/01/26 00:49:22;;;;;;;16.38;2.35;;;;;;;3.61;92.88;101050.91;4906917;29;20566;-76
2021/01/26 00:51:47;;;;;;;19.08;2.63;;;;;;;3.66;92.24;101056.75;4904185;29;20141;-75
2021/01/26 00:54:13;;;;;;;18.92;3.22;;;;;;;3.50;92.00;101040.22;4918754;29;20122;-75
2021/01/26 00:56:38;;;;;;;13.07;2.30;;;;;;;3.53;92.39;101066.44;4906067;29;20107;-76
2021/01/26 00:59:04;;;;;;;13.95;2.40;;;;;;;3.42;92.94;101063.66;4906205;29;20567;-76
2021/01/26 01:01:29;;;;;;;15.57;2.35;;;;;;;3.37;93.00;101077.16;4905955;29;20572;-76
2021/01/26 01:03:55;;;;;;;15.82;2.47;;;;;;;3.30;93.34;101071.44;4905064;29;20111;-76
2021/01/26 01:06:20;;;;;;;12.65;2.40;;;;;;;3.26;93.44;101082.28;4905355;29;20111;-76
2021/01/26 01:08:46;;;;;;;14.50;2.40;;;;;;;3.26;93.77;101075.22;4902499;29;20036;-76
2021/01/26 01:11:11;;;;;;;12.95;2.08;;;;;;;3.35;93.42;101074.59;4904616;29;20031;-75
2021/01/26 01:13:37;;;;;;;8.55;2.08;;;;;;;3.41;93.01;101080.44;4904688;29;20554;-76
2021/01/26 01:16:02;;;;;;;15.75;2.10;;;;;;;3.37;93.40;101069.25;4904199;29;20458;-76
2021/01/26 01:18:28;;;;;;;13.98;2.38;;;;;;;3.55;93.75;101098.84;4908185;29;20087;-75
2021/01/26 01:20:53;;;;;;;24.05;3.40;;;;;;;3.61;93.44;101098.41;4906653;29;20115;-75
2021/01/26 01:23:19;;;;;;;19.45;2.83;;;;;;;3.71;93.35;101101.31;4905583;29;20078;-76
2021/01/26 01:25:44;;;;;;;18.27;3.20;;;;;;;3.74;93.25;101106.38;4904714;29;20127;-76
2021/01/26 01:28:10;;;;;;;16.35;2.75;;;;;;;3.60;92.63;101075.59;4905043;29;20028;-75
2021/01/26 01:30:35;;;;;;;14.00;2.47;;;;;;;3.79;92.88;101108.72;4920468;29;20635;-75
2021/01/26 01:33:03;;;;;;;21.52;2.50;;;;;;;3.79;92.46;101120.13;4909076;29;20551;-76
2021/01/26 01:35:28;;;;;;;15.63;2.47;;;;;;;3.84;92.36;101133.03;4907734;29;20123;-76
2021/01/26 01:37:54;;;;;;;17.42;1.77;;;;;;;3.48;89.25;101106.31;4908198;29;20179;-77
2021/01/26 01:40:39;;;;;;;7.80;1.38;;;;;;;3.59;89.71;101154.91;4925612;29;20059;-77
2021/01/26 01:43:04;;;;;;;9.40;1.65;;;;;;;3.45;89.40;101154.00;4907842;29;20040;-77
2021/01/26 01:45:30;;;;;;;8.57;1.75;;;;;;;3.30;90.47;101149.72;4908879;29;20115;-76
2021/01/26 01:48:00;;;;;;;10.00;1.45;;;;;;;3.10;91.87;101161.53;4917967;29;20123;-84
2021/01/26 01:50:28;;;;;;;8.23;1.50;;;;;;;3.00;92.93;101155.97;4892979;29;20046;-84
2021/01/26 01:53:08;;;;;;;9.65;1.73;;;;;;;2.96;93.60;101143.94;4922491;29;20040;-83
2021/01/26 01:55:35;;;;;;;4.35;0.95;;;;;;;2.97;93.40;101154.38;4922502;29;20024;-83
2021/01/26 01:58:05;;;;;;;7.47;1.13;;;;;;;2.94;93.53;101153.75;4893980;29;20026;-82
2021/01/26 02:00:33;;;;;;;5.80;1.15;;;;;;;2.93;93.06;101165.22;4908356;29;20027;-84
2021/01/26 02:03:18;;;;;;;7.55;1.10;;;;;;;2.85;92.93;101163.91;4906017;29;20044;-83
2021/01/26 02:05:44;;;;;;;7.38;1.10;;;;;;;2.80;93.28;101166.00;4903585;29;20095;-83
2021/01/26 02:08:14;;;;;;;8.35;1.33;;;;;;;2.80;93.24;101158.09;4908631;29;20538;-83
2021/01/26 02:10:39;;;;;;;5.85;1.10;;;;;;;2.81;93.86;101156.28;4896039;29;20121;-83
2021/01/26 02:13:05;;;;;;;6.05;1.08;;;;;;;2.84;93.29;101164.00;4906481;29;20119;-85
2021/01/26 02:15:30;;;;;;;3.03;0.90;;;;;;;2.81;93.34;101161.56;4908598;29;20039;-83
2021/01/26 02:18:17;;;;;;;7.68;1.60;;;;;;;2.82;93.83;101157.97;4909302;29;20165;-83
2021/01/26 02:21:20;;;;;;;12.38;1.65;;;;;;;2.88;94.60;101176.06;4908262;29;20031;-83
2021/01/26 02:24:13;;;;;;;11.25;1.80;;;;;;;2.91;95.28;101183.78;4924547;29;20115;-82
2021/01/26 02:27:10;;;;;;;14.30;2.38;;;;;;;2.99;95.68;101185.91;4908005;29;20032;-82
2021/01/26 02:30:13;;;;;;;12.73;2.35;;;;;;;3.02;95.88;101189.25;4904844;29;20396;-82
2021/01/26 02:32:58;;;;;;;12.35;2.20;;;;;;;3.04;96.15;101190.00;4906959;29;20039;-82
2021/01/26 02:35:39;;;;;;;11.30;1.98;;;;;;;3.03;95.69;101180.38;4908500;29;20032;-81
2021/01/26 02:38:17;;;;;;;18.08;2.20;;;;;;;3.08;95.83;101197.69;4908120;29;20121;-81
2021/01/26 02:40:48;;;;;;;17.25;2.20;;;;;;;3.04;95.49;101199.69;4909061;29;20044;-82
2021/01/26 02:43:26;;;;;;;11.43;2.13;;;;;;;3.05;94.96;101198.72;4908667;29;20036;-82
2021/01/26 02:46:21;;;;;;;15.07;2.33;;;;;;;3.05;94.37;101202.22;4899400;29;20518;-82
2021/01/26 02:49:09;;;;;;;13.77;2.20;;;;;;;3.04;93.37;101205.81;4908446;29;20530;-82
2021/01/26 02:52:07;;;;;;;16.80;2.53;;;;;;;2.98;93.74;101213.25;4905125;29;20051;-83
2021/01/26 02:54:44;;;;;;;12.95;1.85;;;;;;;2.94;93.45;101211.75;4921636;29;20458;-82
2021/01/26 02:57:31;;;;;;;9.98;2.05;;;;;;;2.93;94.37;101213.50;4907505;29;20111;-81
2021/01/26 03:00:17;;;;;;;15.32;2.10;;;;;;;2.91;94.62;101212.78;4907057;29;20122;-83
2021/01/26 03:02:53;;;;;;;23.50;3.20;;;;;;;2.98;95.53;101219.38;4900902;29;20056;-82
2021/01/26 03:05:20;;;;;;;20.67;3.25;;;;;;;3.10;95.75;101219.53;4904029;29;20051;-82
2021/01/26 03:07:50;;;;;;;19.58;2.75;;;;;;;2.85;95.92;101174.44;4889632;29;20039;-82
2021/01/26 03:10:17;;;;;;;22.33;3.65;;;;;;;2.52;95.67;101103.56;4918323;29;20061;-83
2021/01/26 03:12:50;;;;;;;21.88;3.03;;;;;;;3.33;95.61;101218.94;4906371;29;20032;-82
2021/01/26 03:15:20;;;;;;;19.40;2.72;;;;;;;3.33;95.15;101218.94;4923646;29;20043;-83
2021/01/26 03:17:49;;;;;;;24.33;3.00;;;;;;;3.35;94.73;101229.41;4900248;29;20032;-83
2021/01/26 03:20:16;;;;;;;;;;;;;;;3.35;94.87;101234.69;4906794;29;20032;-83
2021/01/26 03:22:45;;;;;;;21.52;3.05;;;;;;;3.14;94.98;101206.06;4908717;29;19965;-83
2021/01/26 03:25:11;;;;;;;17.92;2.38;;;;;;;3.37;94.17;101240.72;4918651;29;20048;-83
2021/01/26 03:27:38;;;;;;;18.30;2.88;;;;;;;3.38;94.66;101242.41;4889372;29;20075;-82
2021/01/26 03:30:05;;;;;;;20.98;3.67;;;;;;;3.36;94.42;101242.50;4889734;29;20581;-83
2021/01/26 03:32:32;;;;;;;22.17;2.63;;;;;;;3.34;94.38;101254.94;4886639;29;20031;-82
2021/01/26 03:34:58;;;;;;;21.92;3.08;;;;;;;3.33;94.56;101255.03;4889830;29;20140;-82
2021/01/26 03:37:23;;;;;;;13.75;2.28;;;;;;;3.30;94.56;101253.44;4907104;29;20268;-82
2021/01/26 03:39:49;;;;;;;27.60;3.03;;;;;;;3.25;94.99;101259.97;4901554;29;20119;-82
2021/01/26 03:42:14;;;;;;;21.98;2.70;;;;;;;3.29;94.77;101262.31;4889943;29;20119;-82
2021/01/26 03:44:40;;;;;;;17.33;3.40;;;;;;;3.28;94.18;101263.25;4905097;29;20126;-82
2021/01/26 03:47:16;;;;;;;19.35;2.80;;;;;;;3.26;94.33;101267.75;4858563;29;20127;-82
2021/01/26 03:49:48;;;;;;;19.88;2.78;;;;;;;3.22;94.67;101275.03;4905418;29;20107;-82
2021/01/26 03:52:32;;;;;;;18.35;3.42;;;;;;;3.18;94.42;101283.22;4904523;29;20028;-82
2021/01/26 03:55:08;;;;;;;16.38;2.65;;;;;;;2.78;94.44;101228.50;4904631;29;20095;-82
2021/01/26 03:58:19;;;;;;;9.38;2.25;;;;;;;3.14;94.04;101287.00;4904404;29;20111;-82
2021/01/26 04:01:08;;;;;;;17.90;3.15;;;;;;;3.12;93.86;101294.97;4938250;28;20565;-82
2021/01/26 04:04:01;;;;;;;11.40;1.65;;;;;;;3.14;93.71;101294.91;4952925;28;20106;-82
2021/01/26 04:06:35;;;;;;;14.38;2.25;;;;;;;3.11;93.69;101297.72;4911700;28;20076;-81
2021/01/26 04:09:07;;;;;;;16.35;1.90;;;;;;;3.16;93.96;101287.75;4907154;29;20159;-82
2021/01/26 04:12:05;;;;;;;14.57;1.60;;;;;;;3.15;93.69;101288.69;4891040;29;20028;-82
2021/01/26 04:14:32;;;;;;;19.27;1.88;;;;;;;3.08;93.69;101274.16;4918532;29;20040;-83
2021/01/26 04:17:27;;;;;;;16.20;2.72;;;;;;;3.23;94.25;101286.41;4885341;29;20605;-82
2021/01/26 04:20:05;;;;;;;14.02;1.80;;;;;;;3.28;94.65;101296.69;4921300;29;20032;-82
2021/01/26 04:22:31;;;;;;;12.00;2.00;;;;;;;3.30;94.44;101293.03;4890639;29;20028;-83
2021/01/26 04:24:56;;;;;;;12.15;1.90;;;;;;;3.28;94.04;101299.31;4905233;29;20063;-82
2021/01/26 04:27:23;;;;;;;13.60;2.40;;;;;;;3.17;93.88;101292.09;4905052;29;20564;-82
2021/01/26 04:29:48;;;;;;;13.75;1.98;;;;;;;3.24;94.20;101295.19;4904550;29;20561;-81
2021/01/26 04:32:15;;;;;;;13.40;1.67;;;;;;;3.32;92.53;101317.53;4906358;29;20036;-81
2021/01/26 04:34:41;;;;;;;9.05;1.20;;;;;;;3.29;91.09;101319.47;4888804;29;20420;-83
2021/01/26 04:37:06;;;;;;;8.70;2.13;;;;;;;3.27;90.63;101319.59;4916257;29;20115;-81
2021/01/26 04:39:32;;;;;;;14.55;1.40;;;;;;;3.23;90.91;101323.34;4905395;29;20080;-81
2021/01/26 04:42:15;;;;;;;13.32;1.92;;;;;;;3.12;90.53;101321.34;4906249;29;20163;-81
2021/01/26 04:45:03;;;;;;;17.67;2.20;;;;;;;3.15;90.63;101328.25;4891533;29;20119;-81
2021/01/26 04:47:28;;;;;;;;;;;;;;;3.13;90.35;101341.50;4883384;29;20051;-82
2021/01/26 04:50:31;;;;;;;13.43;2.25;;;;;;;3.01;90.70;101335.19;4901323;29;19915;-80
2021/01/26 04:53:06;;;;;;;13.90;1.42;;;;;;;2.99;91.47;101346.75;4904236;29;20224;-81
2021/01/26 04:55:56;;;;;;;10.52;1.42;;;;;;;2.99;91.66;101345.00;4905147;29;20483;-81
2021/01/26 04:58:38;;;;;;;12.88;1.33;;;;;;;2.97;91.66;101343.38;4919731;29;20036;-81
2021/01/26 05:01:13;;;;;;;20.60;2.10;;;;;;;2.95;91.74;101347.91;4903811;29;20056;-81
2021/01/26 05:03:48;;;;;;;21.83;2.40;;;;;;;2.97;91.72;101354.78;4902468;29;20047;-80
2021/01/26 05:06:16;;;;;;;16.45;2.15;;;;;;;3.01;91.82;101356.28;4911092;29;20032;-81
2021/01/26 05:08:42;;;;;;;18.10;2.15;;;;;;;3.06;91.40;101358.66;4921502;29;20040;-81
2021/01/26 05:11:12;;;;;;;15.10;2.17;;;;;;;3.15;91.32;101354.63;4894165;29;20036;-74
2021/01/26 05:13:42;;;;;;;11.68;1.60;;;;;;;3.18;91.46;101365.00;4905788;29;20065;-85
2021/01/26 05:16:34;;;;;;;14.25;1.77;;;;;;;3.19;91.15;101359.63;4909985;29;20036;-74
2021/01/26 05:19:04;;;;;;;18.40;2.10;;;;;;;3.19;91.06;101369.31;4911569;29;20146;-74
2021/01/26 05:21:38;;;;;;;19.25;2.10;;;;;;;3.19;91.15;101372.81;4921634;29;20033;-74
2021/01/26 05:24:37;;;;;;;18.92;2.80;;;;;;;3.13;91.15;101378.44;4878759;29;20036;-81
2021/01/26 05:27:03;;;;;;;18.23;2.55;;;;;;;3.13;91.45;101375.78;4922663;29;20059;-74
2021/01/26 05:29:29;;;;;;;15.27;1.98;;;;;;;3.17;91.93;101373.84;4911838;29;20055;-75
2021/01/26 05:32:03;;;;;;;15.63;1.70;;;;;;;3.15;92.66;101381.00;4903732;29;20040;-74
2021/01/26 05:34:29;;;;;;;19.80;1.80;;;;;;;3.15;92.87;101381.00;4917246;29;20038;-74
2021/01/26 05:36:55;;;;;;;11.88;2.10;;;;;;;3.19;92.45;101386.00;4906551;29;20016;-74
2021/01/26 05:39:31;;;;;;;15.50;2.15;;;;;;;3.26;92.76;101388.28;4906991;29;20047;-74
2021/01/26 05:41:58;;;;;;;20.40;2.65;;;;;;;3.13;92.27;101377.59;4906321;29;20040;-74
2021/01/26 05:44:23;;;;;;;16.40;1.95;;;;;;;3.19;92.59;101393.06;4905285;29;20831;-74
2021/01/26 05:46:49;;;;;;;17.08;1.85;;;;;;;2.99;92.40;101352.91;4916526;29;20115;-82
2021/01/26 05:49:34;;;;;;;17.67;2.05;;;;;;;3.26;92.25;101404.09;4880464;29;20110;-74
2021/01/26 05:52:00;;;;;;;11.45;1.45;;;;;;;3.28;92.01;101403.06;4908446;29;20017;-74
2021/01/26 05:54:26;;;;;;;13.52;1.65;;;;;;;3.28;91.63;101405.69;4907454;29;20123;-74
2021/01/26 05:56:51;;;;;;;17.10;2.50;;;;;;;3.29;91.57;101410.03;4906362;29;20067;-74
2021/01/26 05:59:32;;;;;;;12.43;2.35;;;;;;;3.34;91.33;101407.94;4902300;29;20072;-75
2021/01/26 06:02:13;;;;;;;16.55;2.88;;;;;;;3.35;90.76;101414.94;4917529;29;20020;-82
2021/01/26 06:04:39;;;;;;;12.50;1.92;;;;;;;3.38;90.68;101427.09;4917185;29;20092;-75
2021/01/26 06:07:06;;;;;;;11.60;2.10;;;;;;;3.34;90.06;101431.69;4892116;29;20072;-74
2021/01/26 06:09:39;;;;;;;14.32;1.80;;;;;;;3.34;90.16;101431.69;4921431;29;20047;-82
2021/01/26 06:12:05;;;;;;;18.20;2.58;;;;;;;3.37;90.06;101447.34;4909957;29;20100;-74
2021/01/26 06:14:31;;;;;;;19.15;2.80;;;;;;;3.25;90.32;101424.34;4904122;29;20083;-79
2021/01/26 06:17:07;;;;;;;12.20;1.85;;;;;;;3.44;89.90;101445.19;4914799;29;20310;-74
2021/01/26 06:19:33;;;;;;;24.40;2.65;;;;;;;3.41;90.44;101455.09;4908049;29;20036;-75
2021/01/26 06:21:58;;;;;;;16.52;1.88;;;;;;;3.46;90.92;101458.31;4910131;29;20031;-74
2021/01/26 06:24:28;;;;;;;12.15;2.22;;;;;;;3.43;91.03;101450.56;4909608;29;20126;-74
2021/01/26 06:27:08;;;;;;;16.63;1.75;;;;;;;3.45;90.65;101449.53;4906488;29;20019;-74
2021/01/26 06:30:07;;;;;;;14.57;2.03;;;;;;;3.24;90.60;101424.44;4904330;29;20036;-74
2021/01/26 06:33:10;;;;;;;15.15;1.92;;;;;;;3.42;91.47;101459.44;4889442;29;20087;-74
2021/01/26 06:35:59;;;;;;;10.25;1.85;;;;;;;3.42;91.55;101456.78;4900020;29;20556;-74
2021/01/26 06:38:34;;;;;;;13.30;2.05;;;;;;;3.07;91.22;101418.38;4923932;28;20127;-73
2021/01/26 06:41:28;;;;;;;15.75;2.05;;;;;;;3.33;91.19;101474.84;4902552;29;20087;-83
2021/01/26 06:43:56;;;;;;;9.88;1.70;;;;;;;3.28;91.68;101474.28;4908159;29;20516;-73
2021/01/26 06:47:06;;;;;;;17.48;1.95;;;;;;;3.24;91.40;101478.03;4901883;29;20043;-75
2021/01/26 06:49:43;;;;;;;17.95;1.98;;;;;;;2.97;91.50;101441.78;4901591;29;20435;-74
2021/01/26 06:52:31;;;;;;;17.75;2.28;;;;;;;3.09;91.64;101479.78;4901866;29;20092;-74
2021/01/26 06:55:01;;;;;;;20.50;1.88;;;;;;;3.06;91.65;101498.41;4900823;29;20039;-74
2021/01/26 06:57:40;;;;;;;15.27;1.98;;;;;;;2.98;92.17;101490.09;4909470;29;20028;-75
2021/01/26 07:00:15;;;;;;;;;;;;;;;3.05;91.49;101500.19;4897200;29;20079;-80
2021/01/26 07:03:05;;;;;;;19.33;2.40;;;;;;;3.11;91.35;101506.06;4902002;29;19946;-74
2021/01/26 07:05:50;;;;;;;14.40;2.00;;;;;;;3.14;90.88;101505.88;4899768;29;20464;-75
2021/01/26 07:08:44;;;;;;;11.18;1.60;;;;;;;3.13;91.27;101517.38;4901153;29;20126;-75
2021/01/26 07:11:48;;;;;;;7.45;1.45;;;;;;;3.07;91.08;101526.50;4887482;29;20218;-75
2021/01/26 07:14:37;;;;;;;13.75;1.63;;;;;;;3.11;91.49;101535.06;4890671;29;20120;-75
2021/01/26 07:17:07;;;;;;;14.95;1.67;;;;;;;3.19;91.16;101548.69;4915718;29;20047;-74
2021/01/26 07:19:55;;;;;;;9.30;1.85;;;;;;;3.03;91.79;101515.28;4897395;29;20027;-74
2021/01/26 07:22:40;;;;;;;12.52;1.80;;;;;;;3.24;92.00;101541.34;4899625;29;20035;-75
2021/01/26 07:25:08;;;;;;;9.25;1.63;;;;;;;3.19;92.25;101546.88;4897983;29;20064;-80
2021/01/26 07:27:37;;;;;;;;;;;;;;;3.15;92.07;101555.06;4899688;29;20144;-81
2021/01/26 07:30:25;;;;;;;10.27;1.83;;;;;;;3.16;92.29;101560.25;4899999;29;19998;-73
2021/01/26 07:33:01;;;;;;;13.15;1.80;;;;;;;3.13;92.75;101572.75;4914386;29;20040;-77
2021/01/26 07:35:54;;;;;;;12.18;2.08;;;;;;;3.16;93.04;101575.22;4897194;29;20040;-80
2021/01/26 07:38:36;;;;;;;14.35;2.20;;;;;;;3.22;92.77;101578.38;4908353;29;20032;-74
2021/01/26 07:41:12;;;;;;;11.65;2.35;;;;;;;3.26;93.02;101592.22;4907086;29;20028;-74
2021/01/26 07:43:44;;;;;;;12.45;1.60;;;;;;;3.34;92.68;101590.00;4921945;29;20044;-82
2021/01/26 07:46:23;;;;;;;6.47;1.50;;;;;;;3.33;91.96;101584.81;4907380;29;20095;-74
2021/01/26 07:49:02;;;;;;;10.07;1.90;;;;;;;3.36;91.83;101598.69;4888459;29;20054;-74
2021/01/26 07:51:30;;;;;;;14.80;1.63;;;;;;;3.41;92.34;101601.06;4895095;29;20063;-74
2021/01/26 07:53:58;;;;;;;11.45;1.65;;;;;;;3.47;92.21;101591.94;4898639;29;20357;-74
2021/01/26 07:56:37;;;;;;;14.50;2.97;;;;;;;3.39;91.52;101584.47;4910742;29;20420;-74
2021/01/26 07:59:06;;;;;;;15.05;2.08;;;;;;;3.50;92.13;101607.59;4911652;29;20051;-80
2021/01/26 08:01:48;;;;;;;14.02;2.08;;;;;;;3.60;91.44;101613.19;4893816;29;20031;-79
2021/01/26 08:04:14;;;;;;;8.57;1.40;;;;;;;3.63;91.79;101616.50;4906477;29;20063;-80
2021/01/26 08:06:39;;;;;;;11.77;1.70;;;;;;;3.67;91.42;101614.53;4899812;29;20522;-73
2021/01/26 08:09:16;;;;;;;13.25;1.83;;;;;;;3.49;91.48;101592.69;4898705;29;20133;-73
2021/01/26 08:11:58;;;;;;;8.40;1.52;;;;;;;3.70;91.90;101626.72;4901428;29;20028;-73
2021/01/26 08:14:29;;;;;;;11.50;1.88;;;;;;;3.78;91.78;101614.78;4896334;29;20046;-73
2021/01/26 08:16:56;;;;;;;7.90;2.10;;;;;;;3.93;91.09;101638.59;4893339;29;20032;-72
2021/01/26 08:19:29;;;;;;;12.18;1.90;;;;;;;3.91;90.41;101609.59;4899432;29;20131;-73
2021/01/26 08:21:57;;;;;;;7.88;1.85;;;;;;;3.94;90.31;101609.44;4899832;29;20028;-73
2021/01/26 08:24:22;;;;;;;11.68;1.73;;;;;;;4.21;90.27;101640.41;4883186;29;20745;-73
2021/01/26 08:26:51;;;;;;;9.90;1.52;;;;;;;4.25;89.54;101647.25;4895299;29;20024;-80
2021/01/26 08:29:39;;;;;;;8.32;1.40;;;;;;;4.25;89.70;101655.16;4900332;29;20091;-79
2021/01/26 08:32:22;;;;;;;7.72;1.60;;;;;;;4.16;90.51;101654.84;4909222;29;20028;-79
2021/01/26 08:34:59;;;;;;;9.40;2.08;;;;;;;4.12;90.87;101668.25;4906521;29;20587;-73
2021/01/26 08:37:27;;;;;;;9.30;1.88;;;;;;;4.06;90.95;101668.63;4897191;29;20052;-73
2021/01/26 08:39:53;;;;;;;12.93;1.67;;;;;;;4.07;90.27;101670.28;4917380;29;20115;-73
2021/01/26 08:42:42;;;;;;;12.50;2.25;;;;;;;4.06;91.17;101671.25;4917292;29;20474;-73
2021/01/26 08:45:16;;;;;;;11.50;1.60;;;;;;;4.08;90.71;101679.09;4908379;29;20047;-71
2021/01/26 08:47:43;;;;;;;10.52;2.13;;;;;;;4.06;90.53;101667.75;4923952;29;20036;-78
2021/01/26 08:50:19;;;;;;;9.13;1.90;;;;;;;4.05;90.41;101666.91;4899849;29;20036;-78
2021/01/26 08:52:44;;;;;;;8.55;1.55;;;;;;;4.21;90.90;101689.75;4928956;29;20040;-72
2021/01/26 08:55:39;;;;;;;18.38;2.90;;;;;;;4.21;90.46;101690.63;4912437;29;20163;-72
2021/01/26 08:58:06;;;;;;;18.83;2.58;;;;;;;4.21;90.75;101689.75;4911048;29;20207;-72
2021/01/26 09:00:48;;;;;;;9.77;2.25;;;;;;;4.21;90.79;101695.91;4907692;29;20619;-72
2021/01/26 09:03:25;;;;;;;12.93;2.45;;;;;;;4.24;91.18;101705.44;4900888;29;20032;-73
2021/01/26 09:06:08;;;;;;;17.63;2.63;;;;;;;4.28;90.96;101710.44;4909094;29;20062;-72
2021/01/26 09:08:45;;;;;;;13.98;1.92;;;;;;;4.33;91.44;101706.69;4910212;29;20062;-72
2021/01/26 09:11:20;;;;;;;15.80;1.92;;;;;;;4.45;90.73;101716.53;4876589;29;20020;-72
2021/01/26 09:13:46;;;;;;;10.75;1.83;;;;;;;4.52;90.49;101722.28;4911791;29;20028;-72
2021/01/26 09:16:24;;;;;;;12.40;2.03;;;;;;;4.53;90.28;101730.16;4908835;29;20111;-78
2021/01/26 09:18:54;;;;;;;18.77;3.58;;;;;;;4.56;90.98;101734.41;4910440;29;20035;-73
2021/01/26 09:21:19;;;;;;;12.77;2.10;;;;;;;4.57;91.00;101729.00;4912317;29;20506;-72
2021/01/26 09:23:45;;;;;;;15.48;2.30;;;;;;;4.64;91.37;101733.94;4908988;29;20098;-72
2021/01/26 09:26:12;;;;;;;10.43;2.50;;;;;;;4.70;90.43;101738.84;4892331;29;20110;-72
2021/01/26 09:28:39;;;;;;;14.40;3.40;;;;;;;4.65;90.96;101727.72;4906102;29;20558;-73
2021/01/26 09:31:05;;;;;;;13.90;2.60;;;;;;;4.56;90.18;101708.78;4898436;29;20458;-78
2021/01/26 09:33:32;;;;;;;15.95;2.75;;;;;;;4.85;88.79;101748.50;4910812;29;20102;-73
2021/01/26 09:36:00;;;;;;;13.35;2.60;;;;;;;4.93;88.46;101752.47;4912677;29;20036;-73
2021/01/26 09:38:26;;;;;;;;;;;;;;;4.90;88.18;101751.72;4916253;29;20142;-74
2021/01/26 09:40:58;;;;;;;16.58;3.22;;;;;;;4.97;88.25;101756.63;4911333;29;20275;-79
2021/01/26 09:43:25;;;;;;;11.02;2.67;;;;;;;5.05;87.80;101759.66;4925074;29;20145;-73
2021/01/26 09:45:59;;;;;;;20.30;3.08;;;;;;;5.09;88.05;101763.78;4912775;29;20044;-79
2021/01/26 09:48:30;;;;;;;26.15;4.25;;;;;;;5.16;88.37;101756.31;4882453;29;20510;-79
2021/01/26 09:51:09;;;;;;;18.95;3.10;;;;;;;5.30;87.85;101760.78;4912323;29;20155;-74
2021/01/26 09:53:35;;;;;;;17.27;3.83;;;;;;;5.27;87.78;101739.78;4902281;29;20171;-74
2021/01/26 09:56:01;;;;;;;15.30;3.03;;;;;;;5.47;87.46;101760.56;4910389;29;20139;-73
2021/01/26 09:58:26;;;;;;;15.75;2.38;;;;;;;5.46;87.45;101753.56;4895709;29;20024;-79
2021/01/26 10:00:53;;;;;;;14.55;2.08;;;;;;;5.32;86.98;101724.47;4879663;29;20434;-74
2021/01/26 10:03:20;;;;;;;13.68;2.17;;;;;;;5.54;85.43;101770.75;4904202;29;20130;-74
2021/01/26 10:05:46;;;;;;;7.13;1.30;;;;;;;5.41;84.77;101760.94;4902041;29;20028;-74
2021/01/26 10:08:32;;;;;;;18.05;2.00;;;;;;;5.43;84.56;101769.66;4916077;29;20027;-74
2021/01/26 10:11:19;;;;;;;5.20;1.23;;;;;;;5.41;84.78;101776.00;4909980;29;20067;-79
2021/01/26 10:13:47;;;;;;;6.90;1.33;;;;;;;5.18;84.06;101736.78;4904927;29;20177;-74
2021/01/26 10:16:36;;;;;;;7.32;1.13;;;;;;;5.27;83.13;101760.97;4907153;29;20087;-79
2021/01/26 10:19:15;;;;;;;6.50;1.30;;;;;;;5.13;83.63;101727.44;4893000;29;20111;-74
2021/01/26 10:21:40;;;;;;;5.18;1.25;;;;;;;5.23;84.18;101755.00;4888269;29;20024;-74
2021/01/26 10:24:26;;;;;;;2.97;0.90;;;;;;;5.39;84.71;101789.31;4912449;29;20070;-74
2021/01/26 10:26:51;;;;;;;2.40;0.90;;;;;;;5.46;83.36;101781.81;4909435;29;20032;-74
2021/01/26 10:29:23;;;;;;;5.10;0.65;;;;;;;5.41;82.62;101765.41;4893260;29;20458;-79
2021/01/26 10:31:55;;;;;;;7.60;0.95;;;;;;;5.54;82.52;101791.94;4907838;29;20043;-79
2021/01/26 10:34:23;;;;;;;4.90;0.80;;;;;;;5.57;82.14;101783.81;4911689;29;20024;-79
2021/01/26 10:36:49;;;;;;;4.93;1.00;;;;;;;5.57;83.03;101794.41;4910068;29;20056;-74
2021/01/26 10:39:28;;;;;;;3.70;0.95;;;;;;;5.58;81.70;101775.75;4905342;29;20479;-74
2021/01/26 10:42:01;;;;;;;3.00;0.90;;;;;;;5.73;82.34;101796.91;4921506;29;20122;-74
2021/01/26 10:44:27;;;;;;;6.53;1.38;;;;;;;5.58;81.38;101773.09;4891579;29;20059;-74
2021/01/26 10:46:54;;;;;;;4.72;1.35;;;;;;;5.74;81.11;101801.25;4899244;29;20032;-74
2021/01/26 10:49:30;;;;;;;4.45;1.20;;;;;;;5.40;82.18;101777.78;4924895;29;20050;-74
2021/01/26 10:51:57;;;;;;;5.57;1.75;;;;;;;5.31;83.13;101794.25;4909390;29;20040;-74
2021/01/26 10:54:23;;;;;;;4.60;1.80;;;;;;;5.18;82.70;101780.91;4916990;29;20032;-74
2021/01/26 10:56:49;;;;;;;6.43;1.92;;;;;;;5.11;84.11;101796.31;4906365;29;20809;-74
2021/01/26 10:59:16;;;;;;;5.82;2.00;;;;;;;4.86;84.51;101767.88;4902996;29;20115;-74
2021/01/26 11:01:43;;;;;;;7.32;2.47;;;;;;;5.03;85.15;101790.66;4921142;29;20107;-74
2021/01/26 11:04:09;;;;;;;5.80;1.45;;;;;;;5.01;85.63;101798.69;4925737;29;20074;-74
2021/01/26 11:06:35;;;;;;;2.75;1.10;;;;;;;5.08;84.75;101806.22;4910458;29;20055;-74
2021/01/26 11:09:00;;;;;;;7.07;1.30;;;;;;;5.06;85.64;101795.75;4914907;29;20115;-74
2021/01/26 11:11:27;;;;;;;8.35;1.80;;;;;;;4.95;85.79;101779.69;4908312;29;20090;-74
2021/01/26 11:13:53;;;;;;;3.85;1.77;;;;;;;4.99;85.48;101775.91;4900474;29;20071;-74
2021/01/26 11:16:19;;;;;;;5.60;1.08;;;;;;;5.13;85.55;101798.88;4904646;29;20164;-74
2021/01/26 11:18:45;;;;;;;7.20;1.42;;;;;;;5.09;86.65;101800.00;4924767;29;20027;-74
2021/01/26 11:21:10;;;;;;;4.55;1.65;;;;;;;5.17;85.98;101795.94;4903296;29;20206;-73
2021/01/26 11:23:36;;;;;;;5.47;1.60;;;;;;;5.23;86.13;101789.41;4926254;29;20082;-74
2021/01/26 11:26:03;;;;;;;5.03;1.50;;;;;;;5.32;86.39;101793.28;4907852;29;20043;-74
2021/01/26 11:28:28;;;;;;;8.35;1.83;;;;;;;5.36;85.29;101785.06;4913897;29;21036;-74
2021/01/26 11:30:54;;;;;;;7.35;2.03;;;;;;;5.40;85.20;101791.00;4911739;29;20028;-74
2021/01/26 11:33:19;;;;;;;8.98;2.90;;;;;;;5.42;85.81;101794.41;4920994;29;20350;-74
2021/01/26 11:35:45;;;;;;;7.45;1.60;;;;;;;5.45;86.15;101774.81;4910169;29;20115;-75
2021/01/26 11:38:10;;;;;;;5.45;1.67;;;;;;;5.66;85.54;101791.16;4917848;29;20090;-74
2021/01/26 11:40:36;;;;;;;4.55;1.90;;;;;;;5.77;85.11;101787.84;4899494;29;20468;-74
2021/01/26 11:43:02;;;;;;;8.30;1.63;;;;;;;5.66;85.39;101762.03;4912991;29;20079;-74
2021/01/26 11:45:32;;;;;;;5.95;1.38;;;;;;;5.79;85.33;101792.06;4912216;29;20131;-74
2021/01/26 11:47:58;;;;;;;8.45;1.70;;;;;;;5.83;84.13;101790.94;4916262;29;20031;-75
2021/01/26 11:50:24;;;;;;;13.00;1.75;;;;;;;5.62;84.91;101757.91;4921304;29;20023;-75
2021/01/26 11:52:50;;;;;;;12.07;1.73;;;;;;;5.83;84.80;101795.41;4902166;29;20067;-75
2021/01/26 11:55:21;;;;;;;3.05;1.73;;;;;;;5.79;84.44;101789.44;4913413;29;20042;-74